Time,TemperatureF,DewpointF,PressureIn,WindDirection,WindDirectionDegrees,WindSpeedMPH,WindSpeedGustMPH,Humidity,HourlyPrecipIn,Conditions,Clouds,dailyrainin,SoftwareType,DateUTC
2013-09-01 00:00:00,64.6,64.1,27.25,NNW,328,3.3,3.3,98,0.00,--,--,0.00,awk and wget,2013-09-01 04:00:00,
2013-09-01 00:05:00,64.7,64.3,27.25,NNW,327,4.4,4.4,98,0.00,--,--,0.00,awk and wget,2013-09-01 04:05:00,
2013-09-01 00:10:00,64.8,64.4,27.25,NNW,327,4.1,4.1,98,0.00,--,--,0.00,awk and wget,2013-09-01 04:10:00,
2013-09-01 00:15:00,64.8,64.4,27.25,NNW,327,3.5,3.5,98,0.00,--,--,0.00,awk and wget,2013-09-01 04:15:00,
2013-09-01 00:20:00,64.7,64.3,27.25,NNW,329,0.9,2.9,98,0.00,--,--,0.00,awk and wget,2013-09-01 04:20:00,
2013-09-01 00:25:00,64.7,64.3,27.25,East,98,2.4,2.9,98,0.00,--,--,0.00,awk and wget,2013-09-01 04:25:00,
2013-09-01 00:30:00,64.8,64.4,27.25,ESE,110,3.5,3.5,98,0.00,--,--,0.00,awk and wget,2013-09-01 04:30:00,
2013-09-01 00:35:00,64.5,64.0,27.25,East,98,2.8,2.9,98,0.00,--,--,0.00,awk and wget,2013-09-01 04:35:00,
2013-09-01 00:40:00,64.5,64.1,27.25,NNW,331,1.6,2.9,98,0.00,--,--,0.00,awk and wget,2013-09-01 04:40:00,
2013-09-01 00:45:00,64.5,64.1,27.25,ENE,75,2.2,2.9,98,0.00,--,--,0.00,awk and wget,2013-09-01 04:45:00,
2013-09-01 00:50:00,64.4,64.0,27.25,ENE,76,1.5,2.9,98,0.00,--,--,0.00,awk and wget,2013-09-01 04:50:00,
2013-09-01 00:55:00,64.3,63.9,27.25,ENE,77,1.1,2.9,98,0.00,--,--,0.00,awk and wget,2013-09-01 04:55:00,
2013-09-01 01:00:00,64.4,63.9,27.25,ESE,108,2.9,2.9,98,0.00,--,--,0.00,awk and wget,2013-09-01 05:00:00,
2013-09-01 01:10:00,64.3,63.8,27.25,ESE,113,3.5,3.5,98,0.00,--,--,0.00,awk and wget,2013-09-01 05:10:00,
2013-09-01 01:15:00,64.3,63.7,27.25,ESE,113,2.8,2.9,98,0.00,--,--,0.00,awk and wget,2013-09-01 05:15:00,
2013-09-01 01:20:00,64.2,63.6,27.25,East,96,1.8,2.9,97,0.00,--,--,0.00,awk and wget,2013-09-01 05:20:00,
2013-09-01 01:25:00,64.1,63.5,27.25,ENE,78,1.1,2.9,97,0.00,--,--,0.00,awk and wget,2013-09-01 05:25:00,
2013-09-01 01:30:00,64.2,63.6,27.25,ESE,108,2.3,2.9,97,0.00,--,--,0.00,awk and wget,2013-09-01 05:30:00,
2013-09-01 01:35:00,64.1,63.5,27.24,East,99,3.6,3.6,97,0.00,--,--,0.00,awk and wget,2013-09-01 05:35:00,
2013-09-01 01:40:00,64.1,63.4,27.24,ESE,120,1.8,2.9,97,0.00,--,--,0.00,awk and wget,2013-09-01 05:40:00,
2013-09-01 01:45:00,64.1,63.4,27.24,ESE,112,0.4,2.9,97,0.00,--,--,0.00,awk and wget,2013-09-01 05:45:00,
2013-09-01 01:50:00,64.1,63.3,27.24,ESE,113,0.1,2.9,97,0.00,--,--,0.00,awk and wget,2013-09-01 05:50:00,
2013-09-01 01:55:00,64.0,63.2,27.24,East,98,1.1,2.9,97,0.00,--,--,0.00,awk and wget,2013-09-01 05:55:00,
2013-09-01 02:00:00,63.9,63.0,27.24,East,96,0.5,2.9,96,0.00,--,--,0.00,awk and wget,2013-09-01 06:00:00,
2013-09-01 02:05:00,63.9,63.0,27.23,ENE,72,1.7,2.9,96,0.00,--,--,0.00,awk and wget,2013-09-01 06:05:00,
2013-09-01 02:10:00,64.1,63.1,27.23,East,97,2.2,2.9,96,0.00,--,--,0.00,awk and wget,2013-09-01 06:10:00,
2013-09-01 02:20:00,64.0,62.8,27.23,ESE,117,0.4,3.0,95,0.00,--,--,0.00,awk and wget,2013-09-01 06:20:00,
2013-09-01 02:25:00,64.1,62.8,27.23,ESE,117,1.1,3.0,95,0.00,--,--,0.00,awk and wget,2013-09-01 06:25:00,
2013-09-01 02:30:00,64.1,62.7,27.23,ESE,117,0.3,3.0,95,0.00,--,--,0.00,awk and wget,2013-09-01 06:30:00,
2013-09-01 02:35:00,64.0,62.7,27.23,ESE,117,0.4,2.9,95,0.00,--,--,0.00,awk and wget,2013-09-01 06:35:00,
2013-09-01 02:40:00,64.0,62.7,27.23,ESE,117,1.0,2.9,95,0.00,--,--,0.00,awk and wget,2013-09-01 06:40:00,
2013-09-01 02:45:00,63.7,62.5,27.23,ESE,117,0.1,2.9,95,0.00,--,--,0.00,awk and wget,2013-09-01 06:45:00,
2013-09-01 02:50:00,63.7,62.6,27.23,ESE,117,1.2,2.9,96,0.00,--,--,0.00,awk and wget,2013-09-01 06:50:00,
2013-09-01 02:55:00,63.8,62.6,27.23,ESE,118,1.5,2.9,96,0.00,--,--,0.00,awk and wget,2013-09-01 06:55:00,
2013-09-01 03:00:00,63.9,62.7,27.23,ESE,120,1.7,2.9,96,0.00,--,--,0.00,awk and wget,2013-09-01 07:00:00,
2013-09-01 03:05:00,63.9,62.7,27.23,ESE,117,1.1,3.0,95,0.00,--,--,0.00,awk and wget,2013-09-01 07:05:00,
2013-09-01 03:10:00,63.8,62.6,27.23,ESE,118,1.1,3.0,95,0.00,--,--,0.00,awk and wget,2013-09-01 07:10:00,
2013-09-01 03:15:00,63.8,62.6,27.23,SE,126,1.2,3.0,96,0.00,--,--,0.00,awk and wget,2013-09-01 07:15:00,
2013-09-01 03:20:00,63.8,62.7,27.23,SE,127,0.4,2.9,96,0.00,--,--,0.00,awk and wget,2013-09-01 07:20:00,
2013-09-01 03:25:00,63.8,62.7,27.23,SE,127,0.1,2.9,96,0.00,--,--,0.00,awk and wget,2013-09-01 07:25:00,
2013-09-01 03:30:00,63.8,62.7,27.23,SE,127,0.3,2.9,96,0.00,--,--,0.00,awk and wget,2013-09-01 07:30:00,
2013-09-01 03:35:00,63.9,62.8,27.23,NNW,327,1.9,2.9,96,0.00,--,--,0.00,awk and wget,2013-09-01 07:35:00,
2013-09-01 03:40:00,63.9,62.8,27.23,NNW,327,0.5,2.9,96,0.00,--,--,0.00,awk and wget,2013-09-01 07:40:00,
2013-09-01 03:45:00,63.9,62.9,27.22,ESE,113,1.9,2.9,96,0.00,--,--,0.00,awk and wget,2013-09-01 07:45:00,
2013-09-01 03:50:00,63.9,62.9,27.22,ESE,110,2.2,2.9,96,0.00,--,--,0.00,awk and wget,2013-09-01 07:50:00,
2013-09-01 03:55:00,64.0,62.9,27.22,ESE,104,2.9,2.9,96,0.00,--,--,0.00,awk and wget,2013-09-01 07:55:00,
2013-09-01 04:00:00,63.9,62.8,27.22,ESE,106,1.9,2.9,96,0.00,--,--,0.00,awk and wget,2013-09-01 08:00:00,
2013-09-01 04:10:00,63.9,62.6,27.22,ESE,117,1.7,2.9,95,0.00,--,--,0.00,awk and wget,2013-09-01 08:10:00,
2013-09-01 04:15:00,63.9,62.7,27.22,ESE,116,1.2,2.9,95,0.00,--,--,0.00,awk and wget,2013-09-01 08:15:00,
2013-09-01 04:20:00,63.9,62.6,27.22,ESE,115,1.3,2.9,95,0.00,--,--,0.00,awk and wget,2013-09-01 08:20:00,
2013-09-01 04:25:00,63.9,62.7,27.22,ESE,114,1.4,2.9,95,0.00,--,--,0.00,awk and wget,2013-09-01 08:25:00,
2013-09-01 04:30:00,63.9,62.6,27.22,ESE,114,1.5,2.9,95,0.00,--,--,0.00,awk and wget,2013-09-01 08:30:00,
2013-09-01 04:35:00,63.8,62.6,27.22,East,83,1.4,2.9,95,0.00,--,--,0.00,awk and wget,2013-09-01 08:35:00,
2013-09-01 04:40:00,63.8,62.6,27.21,East,93,3.3,3.3,95,0.00,--,--,0.00,awk and wget,2013-09-01 08:40:00,
2013-09-01 04:45:00,63.8,62.5,27.21,ESE,113,2.8,2.9,95,0.00,--,--,0.00,awk and wget,2013-09-01 08:45:00,
2013-09-01 04:50:00,63.7,62.4,27.22,ESE,108,2.8,2.9,95,0.00,--,--,0.00,awk and wget,2013-09-01 08:50:00,
2013-09-01 04:55:00,63.6,62.3,27.22,ESE,116,2.0,2.9,95,0.00,--,--,0.00,awk and wget,2013-09-01 08:55:00,
2013-09-01 05:00:00,63.6,62.2,27.22,ESE,119,3.4,3.4,95,0.00,--,--,0.00,awk and wget,2013-09-01 09:00:00,
2013-09-01 05:05:00,63.6,62.2,27.21,SE,145,1.5,2.9,95,0.00,--,--,0.00,awk and wget,2013-09-01 09:05:00,
2013-09-01 05:10:00,63.7,62.4,27.21,SSE,152,2.0,2.9,95,0.00,--,--,0.00,awk and wget,2013-09-01 09:10:00,
2013-09-01 05:15:00,63.7,62.2,27.21,ESE,122,5.1,5.1,94,0.00,--,--,0.00,awk and wget,2013-09-01 09:15:00,
2013-09-01 05:20:00,63.7,62.2,27.22,SE,143,2.6,2.9,94,0.00,--,--,0.00,awk and wget,2013-09-01 09:20:00,
2013-09-01 05:25:00,63.8,62.6,27.22,SE,137,1.8,2.9,95,0.00,--,--,0.00,awk and wget,2013-09-01 09:25:00,
2013-09-01 05:30:00,63.7,62.4,27.22,NNW,327,1.9,2.9,95,0.00,--,--,0.00,awk and wget,2013-09-01 09:30:00,
2013-09-01 05:35:00,63.7,62.5,27.22,NNW,328,0.8,2.9,95,0.00,--,--,0.00,awk and wget,2013-09-01 09:35:00,
2013-09-01 05:40:00,63.7,62.5,27.22,NNW,329,0.2,2.9,95,0.00,--,--,0.00,awk and wget,2013-09-01 09:40:00,
2013-09-01 05:45:00,63.7,62.7,27.22,NNW,328,2.3,2.9,96,0.00,--,--,0.00,awk and wget,2013-09-01 09:45:00,
2013-09-01 05:50:00,63.6,62.8,27.22,NNW,328,8.4,8.4,96,0.00,--,--,0.00,awk and wget,2013-09-01 09:50:00,
2013-09-01 05:55:00,63.6,62.8,27.22,NNW,329,2.7,2.9,97,0.00,--,--,0.00,awk and wget,2013-09-01 09:55:00,
2013-09-01 06:00:00,63.6,62.9,27.23,NNW,330,0.8,2.9,97,0.00,--,--,0.00,awk and wget,2013-09-01 10:00:00,
2013-09-01 06:05:00,63.6,62.9,27.23,SE,131,5.8,5.8,97,0.00,--,--,0.00,awk and wget,2013-09-01 10:05:00,
2013-09-01 06:10:00,63.6,63.0,27.22,NNW,332,1.9,2.9,97,0.00,--,--,0.00,awk and wget,2013-09-01 10:10:00,
2013-09-01 06:15:00,63.6,63.0,27.22,SSE,152,2.2,2.9,97,0.00,--,--,0.00,awk and wget,2013-09-01 10:15:00,
2013-09-01 06:20:00,63.6,63.0,27.22,SE,143,1.5,2.9,97,0.00,--,--,0.00,awk and wget,2013-09-01 10:20:00,
2013-09-01 06:25:00,63.6,63.1,27.22,ESE,117,3.7,3.7,97,0.00,--,--,0.00,awk and wget,2013-09-01 10:25:00,
2013-09-01 06:30:00,63.6,63.0,27.23,ESE,114,1.7,2.9,97,0.00,--,--,0.00,awk and wget,2013-09-01 10:30:00,
2013-09-01 06:35:00,63.6,63.0,27.22,SE,127,1.5,2.9,97,0.00,--,--,0.00,awk and wget,2013-09-01 10:35:00,
2013-09-01 06:40:00,63.6,63.0,27.22,SE,124,3.0,3.0,97,0.00,--,--,0.00,awk and wget,2013-09-01 10:40:00,
2013-09-01 06:45:00,63.6,63.0,27.23,ESE,107,2.2,2.9,97,0.00,--,--,0.00,awk and wget,2013-09-01 10:45:00,
2013-09-01 06:50:00,63.6,62.9,27.23,SE,127,1.8,3.0,97,0.00,--,--,0.00,awk and wget,2013-09-01 10:50:00,
2013-09-01 06:55:00,63.4,62.8,27.23,ESE,110,4.3,4.3,97,0.00,--,--,0.00,awk and wget,2013-09-01 10:55:00,
2013-09-01 07:00:00,63.4,62.8,27.23,SE,145,1.4,3.0,97,0.00,--,--,0.00,awk and wget,2013-09-01 11:00:00,
2013-09-01 07:05:00,63.4,62.8,27.23,ESE,104,2.2,2.9,97,0.00,--,--,0.00,awk and wget,2013-09-01 11:05:00,
2013-09-01 07:10:00,63.4,62.7,27.23,East,86,1.7,2.9,97,0.00,--,--,0.00,awk and wget,2013-09-01 11:10:00,
2013-09-01 07:15:00,63.4,62.7,27.23,East,85,2.3,2.9,97,0.00,--,--,0.00,awk and wget,2013-09-01 11:15:00,
2013-09-01 07:20:00,63.4,62.7,27.23,East,83,2.2,2.9,97,0.00,--,--,0.00,awk and wget,2013-09-01 11:20:00,
2013-09-01 07:25:00,63.5,62.7,27.24,East,80,1.9,2.9,97,0.00,--,--,0.00,awk and wget,2013-09-01 11:25:00,
2013-09-01 07:30:00,63.5,62.6,27.23,ESE,107,2.2,2.9,96,0.00,--,--,0.00,awk and wget,2013-09-01 11:30:00,
2013-09-01 07:35:00,63.5,62.5,27.24,ESE,103,1.8,2.9,96,0.00,--,--,0.00,awk and wget,2013-09-01 11:35:00,
2013-09-01 07:40:00,63.5,62.5,27.24,ESE,112,1.7,2.9,96,0.00,--,--,0.00,awk and wget,2013-09-01 11:40:00,
2013-09-01 07:45:00,63.4,62.4,27.23,ESE,117,3.6,3.6,96,0.00,--,--,0.00,awk and wget,2013-09-01 11:45:00,
2013-09-01 07:50:00,63.4,62.4,27.24,East,99,1.9,2.9,96,0.00,--,--,0.00,awk and wget,2013-09-01 11:50:00,
2013-09-01 07:55:00,63.5,62.5,27.24,SE,144,0.7,2.9,96,0.00,--,--,0.00,awk and wget,2013-09-01 11:55:00,
2013-09-01 08:00:00,63.4,62.4,27.24,NNW,327,2.1,2.9,96,0.00,--,--,0.00,awk and wget,2013-09-01 12:00:00,
2013-09-01 08:05:00,63.4,62.5,27.24,NNW,331,1.1,2.9,96,0.00,--,--,0.00,awk and wget,2013-09-01 12:05:00,
2013-09-01 08:10:00,63.4,62.5,27.24,North,349,1.0,2.9,96,0.00,--,--,0.00,awk and wget,2013-09-01 12:10:00,
2013-09-01 08:15:00,63.5,62.6,27.24,North,349,1.9,2.9,96,0.00,--,--,0.00,awk and wget,2013-09-01 12:15:00,
2013-09-01 08:20:00,63.6,62.8,27.24,North,350,1.4,2.9,97,0.00,--,--,0.00,awk and wget,2013-09-01 12:20:00,
2013-09-01 08:25:00,63.8,62.9,27.24,NNE,33,1.4,2.9,96,0.00,--,--,0.00,awk and wget,2013-09-01 12:25:00,
2013-09-01 08:30:00,64.1,63.2,27.25,NNW,347,1.3,2.9,96,0.00,--,--,0.00,awk and wget,2013-09-01 12:30:00,
2013-09-01 08:35:00,64.2,63.2,27.25,NE,43,0.9,2.9,96,0.00,--,--,0.00,awk and wget,2013-09-01 12:35:00,
2013-09-01 08:40:00,64.3,63.2,27.25,NNW,329,1.3,2.9,96,0.00,--,--,0.00,awk and wget,2013-09-01 12:40:00,
2013-09-01 08:45:00,64.8,63.6,27.25,SE,141,1.7,2.9,95,0.00,--,--,0.00,awk and wget,2013-09-01 12:45:00,
2013-09-01 08:50:00,64.4,62.9,27.25,East,99,1.6,2.9,94,0.00,--,--,0.00,awk and wget,2013-09-01 12:50:00,
2013-09-01 08:55:00,64.7,63.1,27.25,ESE,109,0.8,2.9,94,0.00,--,--,0.00,awk and wget,2013-09-01 12:55:00,
2013-09-01 09:00:00,65.0,63.2,27.25,NNW,329,1.6,2.9,93,0.00,--,--,0.00,awk and wget,2013-09-01 13:00:00,
2013-09-01 09:05:00,65.0,63.2,27.25,NNW,330,1.1,2.9,93,0.00,--,--,0.00,awk and wget,2013-09-01 13:05:00,
2013-09-01 09:10:00,65.0,63.1,27.25,NNW,327,0.7,2.9,93,0.00,--,--,0.00,awk and wget,2013-09-01 13:10:00,
2013-09-01 09:15:00,65.6,63.5,27.25,NNW,328,3.3,3.3,92,0.00,--,--,0.00,awk and wget,2013-09-01 13:15:00,
2013-09-01 09:20:00,65.4,63.2,27.25,NNW,327,6.4,6.4,92,0.00,--,--,0.00,awk and wget,2013-09-01 13:20:00,
2013-09-01 09:25:00,65.4,63.4,27.25,NNW,327,4.4,4.4,93,0.00,--,--,0.00,awk and wget,2013-09-01 13:25:00,
2013-09-01 09:30:00,65.7,63.5,27.25,NNW,328,5.7,5.7,92,0.00,--,--,0.00,awk and wget,2013-09-01 13:30:00,
2013-09-01 09:35:00,66.2,63.4,27.25,NNW,329,2.5,2.9,90,0.00,--,--,0.00,awk and wget,2013-09-01 13:35:00,
2013-09-01 09:40:00,66.1,63.2,27.25,NNW,327,8.0,8.0,90,0.00,--,--,0.00,awk and wget,2013-09-01 13:40:00,
2013-09-01 09:45:00,66.3,63.4,27.25,NW,326,9.4,9.4,90,0.00,--,--,0.00,awk and wget,2013-09-01 13:45:00,
2013-09-01 09:50:00,66.6,63.3,27.25,NNW,327,4.7,4.7,89,0.00,--,--,0.00,awk and wget,2013-09-01 13:50:00,
2013-09-01 09:55:00,66.8,63.6,27.25,NNW,328,1.9,2.9,89,0.00,--,--,0.00,awk and wget,2013-09-01 13:55:00,
2013-09-01 10:00:00,67.6,63.9,27.25,ESE,123,2.4,2.9,88,0.00,--,--,0.00,awk and wget,2013-09-01 14:00:00,
2013-09-01 10:05:00,67.6,64.0,27.25,NNW,329,1.6,2.9,88,0.00,--,--,0.00,awk and wget,2013-09-01 14:05:00,
2013-09-01 10:10:00,68.3,64.3,27.25,NW,326,1.8,2.9,86,0.00,--,--,0.00,awk and wget,2013-09-01 14:10:00,
2013-09-01 10:20:00,68.5,64.3,27.24,NW,326,3.1,3.1,86,0.00,--,--,0.00,awk and wget,2013-09-01 14:20:00,
2013-09-01 10:25:00,69.3,64.5,27.24,NNW,330,1.9,2.9,84,0.00,--,--,0.00,awk and wget,2013-09-01 14:25:00,
2013-09-01 10:30:00,70.3,64.4,27.24,NNW,329,1.1,2.9,81,0.00,--,--,0.00,awk and wget,2013-09-01 14:30:00,
2013-09-01 10:35:00,70.7,64.4,27.24,NW,326,2.4,2.9,80,0.00,--,--,0.00,awk and wget,2013-09-01 14:35:00,
2013-09-01 10:40:00,71.7,64.4,27.24,SSE,155,0.9,2.9,77,0.00,--,--,0.00,awk and wget,2013-09-01 14:40:00,
2013-09-01 10:45:00,71.6,64.6,27.24,NW,326,1.2,2.9,78,0.00,--,--,0.00,awk and wget,2013-09-01 14:45:00,
2013-09-01 10:50:00,71.6,65.1,27.24,NNW,331,2.6,2.9,79,0.00,--,--,0.00,awk and wget,2013-09-01 14:50:00,
2013-09-01 10:55:00,71.7,64.5,27.23,NNW,328,3.1,3.1,77,0.00,--,--,0.00,awk and wget,2013-09-01 14:55:00,
2013-09-01 11:00:00,72.2,64.4,27.23,NW,326,2.8,2.9,76,0.00,--,--,0.00,awk and wget,2013-09-01 15:00:00,
2013-09-01 11:05:00,72.5,65.2,27.23,NW,325,0.6,2.9,77,0.00,--,--,0.00,awk and wget,2013-09-01 15:05:00,
2013-09-01 11:10:00,72.9,64.2,27.23,NNW,327,2.5,2.9,74,0.00,--,--,0.00,awk and wget,2013-09-01 15:10:00,
2013-09-01 11:15:00,73.5,65.0,27.23,NNW,333,2.7,2.9,74,0.00,--,--,0.00,awk and wget,2013-09-01 15:15:00,
2013-09-01 11:20:00,73.8,64.1,27.23,NNW,330,2.7,2.9,71,0.00,--,--,0.00,awk and wget,2013-09-01 15:20:00,
2013-09-01 11:25:00,74.5,64.1,27.23,NNW,331,2.0,2.9,70,0.00,--,--,0.00,awk and wget,2013-09-01 15:25:00,
2013-09-01 11:30:00,73.9,64.8,27.23,NNW,328,1.6,2.9,73,0.00,--,--,0.00,awk and wget,2013-09-01 15:30:00,
2013-09-01 11:35:00,74.6,63.3,27.23,NW,325,0.9,2.9,67,0.00,--,--,0.00,awk and wget,2013-09-01 15:35:00,
2013-09-01 11:40:00,75.1,61.8,27.23,ESE,115,1.7,2.9,63,0.00,--,--,0.00,awk and wget,2013-09-01 15:40:00,
2013-09-01 11:45:00,75.4,63.2,27.23,NNW,329,2.4,2.9,65,0.00,--,--,0.00,awk and wget,2013-09-01 15:45:00,
2013-09-01 11:50:00,75.2,62.7,27.23,NW,325,1.3,2.9,65,0.00,--,--,0.00,awk and wget,2013-09-01 15:50:00,
2013-09-01 11:55:00,76.0,63.9,27.23,NW,325,2.5,2.9,66,0.00,--,--,0.00,awk and wget,2013-09-01 15:55:00,
2013-09-01 12:00:00,76.5,63.1,27.23,SSE,152,2.9,2.9,63,0.00,--,--,0.00,awk and wget,2013-09-01 16:00:00,
2013-09-01 12:10:00,76.8,63.8,27.23,SE,136,0.4,2.9,64,0.00,--,--,0.00,awk and wget,2013-09-01 16:10:00,
2013-09-01 12:15:00,77.7,63.6,27.23,NNW,328,0.6,2.9,61,0.00,--,--,0.00,awk and wget,2013-09-01 16:15:00,
2013-09-01 12:20:00,77.0,62.9,27.23,East,90,0.4,2.8,61,0.00,--,--,0.00,awk and wget,2013-09-01 16:20:00,
2013-09-01 12:25:00,77.5,63.4,27.23,SE,132,1.5,2.9,61,0.00,--,--,0.00,awk and wget,2013-09-01 16:25:00,
2013-09-01 12:30:00,77.2,64.0,27.23,NNW,329,0.7,2.9,63,0.00,--,--,0.00,awk and wget,2013-09-01 16:30:00,
2013-09-01 12:35:00,77.4,64.1,27.23,NNW,329,3.5,3.5,63,0.00,--,--,0.00,awk and wget,2013-09-01 16:35:00,
2013-09-01 12:40:00,77.6,64.8,27.23,NNW,328,5.0,5.0,64,0.00,--,--,0.00,awk and wget,2013-09-01 16:40:00,
2013-09-01 12:45:00,77.4,65.0,27.23,NNW,327,5.2,5.2,65,0.00,--,--,0.00,awk and wget,2013-09-01 16:45:00,
2013-09-01 12:50:00,76.9,65.0,27.23,NW,325,4.8,4.8,66,0.00,--,--,0.00,awk and wget,2013-09-01 16:50:00,
2013-09-01 12:55:00,77.1,64.8,27.23,NW,325,1.2,2.8,65,0.00,--,--,0.00,awk and wget,2013-09-01 16:55:00,
2013-09-01 13:00:00,77.3,65.6,27.23,NW,323,4.7,4.7,67,0.00,--,--,0.00,awk and wget,2013-09-01 17:00:00,
2013-09-01 13:05:00,77.4,65.5,27.23,NW,323,6.9,6.9,66,0.00,--,--,0.00,awk and wget,2013-09-01 17:05:00,
2013-09-01 13:10:00,76.6,65.2,27.23,NW,326,4.3,4.3,67,0.00,--,--,0.00,awk and wget,2013-09-01 17:10:00,
2013-09-01 13:15:00,77.1,66.1,27.23,ENE,76,4.2,4.2,68,0.00,--,--,0.00,awk and wget,2013-09-01 17:15:00,
2013-09-01 13:20:00,76.9,65.7,27.23,NW,322,4.8,4.8,68,0.00,--,--,0.00,awk and wget,2013-09-01 17:20:00,
2013-09-01 13:25:00,76.7,65.6,27.23,NW,326,6.3,6.3,68,0.00,--,--,0.00,awk and wget,2013-09-01 17:25:00,
2013-09-01 13:30:00,76.8,65.5,27.23,NW,325,5.3,5.3,68,0.00,--,--,0.00,awk and wget,2013-09-01 17:30:00,
2013-09-01 13:35:00,77.1,66.2,27.23,NW,326,2.2,2.9,69,0.00,--,--,0.00,awk and wget,2013-09-01 17:35:00,
2013-09-01 13:40:00,77.0,66.4,27.23,NW,324,4.0,4.0,69,0.00,--,--,0.00,awk and wget,2013-09-01 17:40:00,
2013-09-01 13:45:00,78.0,67.7,27.23,NW,324,7.3,7.3,70,0.00,--,--,0.00,awk and wget,2013-09-01 17:45:00,
2013-09-01 13:50:00,77.8,66.6,27.23,NW,325,8.4,8.4,68,0.00,--,--,0.00,awk and wget,2013-09-01 17:50:00,
2013-09-01 13:55:00,77.4,66.8,27.23,NW,323,6.9,6.9,70,0.00,--,--,0.00,awk and wget,2013-09-01 17:55:00,
2013-09-01 14:00:00,77.4,66.9,27.23,NW,323,4.7,4.7,70,0.00,--,--,0.00,awk and wget,2013-09-01 18:00:00,
2013-09-01 14:05:00,77.7,66.6,27.22,NW,323,7.8,7.8,68,0.00,--,--,0.00,awk and wget,2013-09-01 18:05:00,
2013-09-01 14:10:00,77.7,67.1,27.22,NW,323,10.1,10.1,69,0.00,--,--,0.00,awk and wget,2013-09-01 18:10:00,
2013-09-01 14:15:00,77.5,66.8,27.22,NW,323,8.4,8.4,69,0.00,--,--,0.00,awk and wget,2013-09-01 18:15:00,
2013-09-01 14:20:00,77.9,66.9,27.21,NW,323,8.1,8.1,68,0.00,--,--,0.00,awk and wget,2013-09-01 18:20:00,
2013-09-01 14:25:00,77.5,66.0,27.21,NW,324,8.6,8.6,67,0.00,--,--,0.00,awk and wget,2013-09-01 18:25:00,
2013-09-01 14:30:00,78.2,67.1,27.21,NW,322,10.1,10.1,68,0.00,--,--,0.00,awk and wget,2013-09-01 18:30:00,
2013-09-01 14:35:00,77.7,66.7,27.21,NW,323,10.5,10.5,68,0.00,--,--,0.00,awk and wget,2013-09-01 18:35:00,
2013-09-01 14:40:00,77.6,66.5,27.22,NW,322,9.0,9.0,68,0.00,--,--,0.00,awk and wget,2013-09-01 18:40:00,
2013-09-01 14:45:00,78.1,67.4,27.21,NNW,330,6.8,6.8,69,0.00,--,--,0.00,awk and wget,2013-09-01 18:45:00,
2013-09-01 14:50:00,77.7,67.0,27.21,NW,326,9.7,9.7,69,0.00,--,--,0.00,awk and wget,2013-09-01 18:50:00,
2013-09-01 14:55:00,77.4,66.1,27.21,NW,324,13.2,13.2,68,0.00,--,--,0.00,awk and wget,2013-09-01 18:55:00,
2013-09-01 15:00:00,77.0,64.6,27.21,NW,322,13.8,13.8,65,0.00,--,--,0.00,awk and wget,2013-09-01 19:00:00,
2013-09-01 15:10:00,77.4,66.2,27.21,NW,322,13.6,13.6,68,0.00,--,--,0.00,awk and wget,2013-09-01 19:10:00,
2013-09-01 15:15:00,77.4,65.9,27.21,NW,322,10.5,10.5,67,0.00,--,--,0.00,awk and wget,2013-09-01 19:15:00,
2013-09-01 15:20:00,76.7,65.6,27.20,NW,324,10.8,10.8,68,0.00,--,--,0.00,awk and wget,2013-09-01 19:20:00,
2013-09-01 15:30:00,76.6,65.0,27.20,NW,324,8.1,8.1,67,0.00,--,--,0.00,awk and wget,2013-09-01 19:30:00,
2013-09-01 15:35:00,76.7,65.6,27.20,NW,323,10.2,10.2,68,0.00,--,--,0.00,awk and wget,2013-09-01 19:35:00,
2013-09-01 15:40:00,76.3,65.5,27.20,NW,323,6.8,6.8,69,0.00,--,--,0.00,awk and wget,2013-09-01 19:40:00,
2013-09-01 15:45:00,75.9,64.7,27.20,NW,324,10.9,10.9,68,0.00,--,--,0.00,awk and wget,2013-09-01 19:45:00,
2013-09-01 15:50:00,75.7,65.0,27.20,NW,322,7.4,7.4,69,0.00,--,--,0.00,awk and wget,2013-09-01 19:50:00,
2013-09-01 15:55:00,75.6,65.0,27.19,NW,322,8.0,8.0,69,0.00,--,--,0.00,awk and wget,2013-09-01 19:55:00,
2013-09-01 16:00:00,75.4,65.1,27.19,NW,322,4.1,4.1,70,0.00,--,--,0.00,awk and wget,2013-09-01 20:00:00,
2013-09-01 16:10:00,74.9,64.9,27.19,NW,323,3.9,3.9,70,0.00,--,--,0.00,awk and wget,2013-09-01 20:10:00,
2013-09-01 16:20:00,74.6,65.0,27.19,NW,325,4.8,4.8,72,0.00,--,--,0.00,awk and wget,2013-09-01 20:20:00,
2013-09-01 16:25:00,74.3,66.1,27.19,NW,323,3.0,3.0,75,0.00,--,--,0.00,awk and wget,2013-09-01 20:25:00,
2013-09-01 16:30:00,74.2,66.2,27.19,NW,326,3.8,3.8,76,0.00,--,--,0.00,awk and wget,2013-09-01 20:30:00,
2013-09-01 16:35:00,74.1,66.5,27.19,NW,323,3.8,3.8,77,0.00,--,--,0.00,awk and wget,2013-09-01 20:35:00,
2013-09-01 16:40:00,74.2,66.4,27.19,NW,323,2.6,2.8,76,0.00,--,--,0.00,awk and wget,2013-09-01 20:40:00,
2013-09-01 16:45:00,74.2,65.8,27.19,NW,324,4.9,4.9,75,0.00,--,--,0.00,awk and wget,2013-09-01 20:45:00,
2013-09-01 16:50:00,74.4,65.8,27.19,NW,324,5.5,5.5,74,0.00,--,--,0.00,awk and wget,2013-09-01 20:50:00,
2013-09-01 16:55:00,74.1,66.9,27.19,NNW,327,3.8,3.8,78,0.00,--,--,0.00,awk and wget,2013-09-01 20:55:00,
2013-09-01 17:00:00,73.9,67.0,27.19,NNW,331,2.6,2.9,78,0.00,--,--,0.00,awk and wget,2013-09-01 21:00:00,
2013-09-01 17:05:00,73.8,66.7,27.20,NNW,334,4.4,4.4,78,0.00,--,--,0.00,awk and wget,2013-09-01 21:05:00,
2013-09-01 17:10:00,73.7,66.0,27.19,NNW,329,4.8,4.8,76,0.00,--,--,0.00,awk and wget,2013-09-01 21:10:00,
2013-09-01 17:15:00,73.5,66.0,27.19,NW,326,2.8,2.8,77,0.00,--,--,0.00,awk and wget,2013-09-01 21:15:00,
2013-09-01 17:20:00,73.4,66.6,27.19,NW,325,5.0,5.0,79,0.00,--,--,0.00,awk and wget,2013-09-01 21:20:00,
2013-09-01 17:30:00,73.0,66.6,27.19,NW,324,3.4,3.4,80,0.00,--,--,0.00,awk and wget,2013-09-01 21:30:00,
2013-09-01 17:40:00,73.1,67.7,27.19,NW,324,3.9,3.9,83,0.00,--,--,0.00,awk and wget,2013-09-01 21:40:00,
2013-09-01 17:45:00,72.8,68.1,27.19,NNW,327,3.4,3.4,85,0.00,--,--,0.00,awk and wget,2013-09-01 21:45:00,
2013-09-01 17:50:00,72.4,67.7,27.19,NNW,333,3.3,3.3,85,0.00,--,--,0.00,awk and wget,2013-09-01 21:50:00,
2013-09-01 17:55:00,72.4,67.0,27.18,NNW,329,4.7,4.7,83,0.00,--,--,0.00,awk and wget,2013-09-01 21:55:00,
2013-09-01 18:00:00,72.3,66.1,27.18,NW,326,2.8,2.9,80,0.00,--,--,0.00,awk and wget,2013-09-01 22:00:00,
2013-09-01 18:05:00,72.3,66.9,27.18,NNW,335,2.4,2.9,83,0.00,--,--,0.00,awk and wget,2013-09-01 22:05:00,
2013-09-01 18:10:00,72.2,67.9,27.18,NNW,340,2.8,2.9,86,0.00,--,--,0.00,awk and wget,2013-09-01 22:10:00,
2013-09-01 18:15:00,72.5,66.5,27.18,NNW,348,1.5,2.9,81,0.00,--,--,0.00,awk and wget,2013-09-01 22:15:00,
2013-09-01 18:20:00,72.6,66.9,27.18,NW,324,1.5,2.8,82,0.00,--,--,0.00,awk and wget,2013-09-01 22:20:00,
2013-09-01 18:25:00,72.5,66.0,27.18,NW,324,1.8,2.9,80,0.00,--,--,0.00,awk and wget,2013-09-01 22:25:00,
2013-09-01 18:30:00,72.6,66.6,27.18,SSE,156,1.5,2.9,81,0.00,--,--,0.00,awk and wget,2013-09-01 22:30:00,
2013-09-01 18:35:00,72.3,67.2,27.18,SSE,154,0.6,2.9,84,0.00,--,--,0.00,awk and wget,2013-09-01 22:35:00,
2013-09-01 18:40:00,72.3,67.4,27.18,ESE,104,1.7,2.8,84,0.00,--,--,0.00,awk and wget,2013-09-01 22:40:00,
2013-09-01 18:50:00,72.5,66.3,27.18,NW,326,0.9,2.9,81,0.00,--,--,0.00,awk and wget,2013-09-01 22:50:00,
2013-09-01 18:55:00,72.2,67.4,27.18,NW,324,0.5,2.9,85,0.00,--,--,0.00,awk and wget,2013-09-01 22:55:00,
2013-09-01 19:00:00,71.8,67.8,27.18,NW,325,0.8,2.8,87,0.00,--,--,0.00,awk and wget,2013-09-01 23:00:00,
2013-09-01 19:10:00,70.9,68.0,27.18,NNW,335,1.4,2.8,90,0.00,--,--,0.00,awk and wget,2013-09-01 23:10:00,
2013-09-01 19:15:00,70.8,67.9,27.18,NNW,335,0.1,2.8,90,0.00,--,--,0.00,awk and wget,2013-09-01 23:15:00,
2013-09-01 19:20:00,70.4,67.9,27.19,North,1,2.6,2.8,91,0.00,--,--,0.00,awk and wget,2013-09-01 23:20:00,
2013-09-01 19:25:00,70.1,67.6,27.18,NNW,347,1.9,2.9,92,0.00,--,--,0.00,awk and wget,2013-09-01 23:25:00,
2013-09-01 19:30:00,69.9,67.6,27.18,North,357,2.3,2.9,92,0.00,--,--,0.00,awk and wget,2013-09-01 23:30:00,
2013-09-01 19:35:00,69.6,67.4,27.18,NNW,346,1.2,2.9,92,0.00,--,--,0.00,awk and wget,2013-09-01 23:35:00,
2013-09-01 19:40:00,69.4,67.3,27.19,North,4,1.5,2.9,92,0.00,--,--,0.00,awk and wget,2013-09-01 23:40:00,
2013-09-01 19:50:00,69.3,67.4,27.19,NE,53,1.2,2.9,93,0.00,--,--,0.00,awk and wget,2013-09-01 23:50:00,
2013-09-01 19:55:00,69.0,67.2,27.19,NE,43,0.7,2.9,93,0.00,--,--,0.00,awk and wget,2013-09-01 23:55:00,
2013-09-01 20:00:00,68.7,67.1,27.19,NNW,345,2.6,2.9,94,0.00,--,--,0.00,awk and wget,2013-09-02 00:00:00,
2013-09-01 20:05:00,68.5,67.0,27.19,NNW,348,0.7,2.9,94,0.00,--,--,0.00,awk and wget,2013-09-02 00:05:00,
2013-09-01 20:10:00,68.3,66.9,27.19,NNW,348,0.1,2.9,95,0.00,--,--,0.00,awk and wget,2013-09-02 00:10:00,
2013-09-01 20:15:00,68.1,66.8,27.19,NNW,348,1.1,2.9,95,0.00,--,--,0.00,awk and wget,2013-09-02 00:15:00,
2013-09-01 20:20:00,68.1,66.8,27.19,North,5,1.9,2.9,95,0.00,--,--,0.00,awk and wget,2013-09-02 00:20:00,
2013-09-01 20:25:00,68.1,66.7,27.19,NNE,33,1.5,2.9,95,0.00,--,--,0.00,awk and wget,2013-09-02 00:25:00,
2013-09-01 20:30:00,68.0,66.6,27.19,NE,53,2.2,2.9,95,0.00,--,--,0.00,awk and wget,2013-09-02 00:30:00,
2013-09-01 20:35:00,67.9,66.5,27.19,NNE,29,1.3,2.9,95,0.00,--,--,0.00,awk and wget,2013-09-02 00:35:00,
2013-09-01 20:40:00,67.4,65.9,27.19,NNE,28,1.1,2.9,95,0.00,--,--,0.00,awk and wget,2013-09-02 00:40:00,
2013-09-01 20:45:00,67.1,66.0,27.20,North,355,1.4,2.9,96,0.00,--,--,0.00,awk and wget,2013-09-02 00:45:00,
2013-09-01 20:50:00,66.9,65.8,27.20,NNW,340,0.7,2.9,96,0.00,--,--,0.00,awk and wget,2013-09-02 00:50:00,
2013-09-01 20:55:00,66.9,66.0,27.20,NNW,340,0.1,2.9,96,0.00,--,--,0.00,awk and wget,2013-09-02 00:55:00,
2013-09-01 21:00:00,66.5,65.6,27.20,NNW,340,0.6,2.9,96,0.00,--,--,0.00,awk and wget,2013-09-02 01:00:00,
2013-09-01 21:05:00,66.2,65.4,27.21,NNW,331,2.0,2.9,97,0.00,--,--,0.00,awk and wget,2013-09-02 01:05:00,
2013-09-01 21:10:00,66.2,65.5,27.21,NNW,329,2.5,2.9,97,0.00,--,--,0.00,awk and wget,2013-09-02 01:10:00,
2013-09-01 21:15:00,66.1,65.5,27.21,NNW,329,1.0,2.9,97,0.00,--,--,0.00,awk and wget,2013-09-02 01:15:00,
2013-09-01 21:20:00,66.2,65.6,27.21,NNW,329,0.7,2.9,97,0.00,--,--,0.00,awk and wget,2013-09-02 01:20:00,
2013-09-01 21:25:00,66.5,65.9,27.21,NNE,22,1.2,2.9,98,0.00,--,--,0.00,awk and wget,2013-09-02 01:25:00,
2013-09-01 21:30:00,66.5,66.0,27.21,NNE,29,1.8,2.9,98,0.00,--,--,0.00,awk and wget,2013-09-02 01:30:00,
2013-09-01 21:35:00,66.5,66.0,27.20,ENE,65,1.3,2.9,98,0.00,--,--,0.00,awk and wget,2013-09-02 01:35:00,
2013-09-01 21:40:00,66.7,66.2,27.20,ESE,115,0.5,2.9,98,0.00,--,--,0.00,awk and wget,2013-09-02 01:40:00,
2013-09-01 21:45:00,66.4,65.9,27.21,ESE,116,0.1,2.9,98,0.00,--,--,0.00,awk and wget,2013-09-02 01:45:00,
2013-09-01 21:50:00,66.2,65.7,27.21,ESE,116,0.1,2.9,98,0.00,--,--,0.00,awk and wget,2013-09-02 01:50:00,
2013-09-01 22:00:00,66.0,65.5,27.21,NNW,338,1.4,2.9,98,0.00,--,--,0.00,awk and wget,2013-09-02 02:00:00,
2013-09-01 22:05:00,65.8,65.3,27.21,NNW,338,1.1,2.9,98,0.00,--,--,0.00,awk and wget,2013-09-02 02:05:00,
2013-09-01 22:10:00,65.7,65.2,27.21,NNW,338,1.0,2.9,98,0.00,--,--,0.00,awk and wget,2013-09-02 02:10:00,
2013-09-01 22:20:00,66.1,65.7,27.22,North,11,0.5,2.9,98,0.00,--,--,0.00,awk and wget,2013-09-02 02:20:00,
2013-09-01 22:25:00,66.1,65.7,27.22,North,11,0.9,2.9,98,0.00,--,--,0.00,awk and wget,2013-09-02 02:25:00,
2013-09-01 22:30:00,66.0,65.6,27.22,North,11,1.5,2.9,98,0.00,--,--,0.00,awk and wget,2013-09-02 02:30:00,
2013-09-01 22:35:00,65.9,65.5,27.21,NNE,12,0.9,2.9,98,0.00,--,--,0.00,awk and wget,2013-09-02 02:35:00,
2013-09-01 22:40:00,65.7,65.3,27.22,NNE,12,0.8,2.9,98,0.00,--,--,0.00,awk and wget,2013-09-02 02:40:00,
2013-09-01 22:45:00,65.5,65.1,27.22,NNE,12,0.6,2.9,98,0.00,--,--,0.00,awk and wget,2013-09-02 02:45:00,
2013-09-01 22:50:00,65.6,65.3,27.21,NNE,12,1.4,2.9,98,0.00,--,--,0.00,awk and wget,2013-09-02 02:50:00,
2013-09-01 22:55:00,65.4,65.0,27.21,NNE,22,2.4,2.9,98,0.00,--,--,0.00,awk and wget,2013-09-02 02:55:00,
2013-09-01 23:00:00,65.2,64.8,27.21,NNE,20,1.4,2.9,98,0.00,--,--,0.00,awk and wget,2013-09-02 03:00:00,
2013-09-01 23:05:00,65.0,64.7,27.21,NNE,20,2.0,2.9,98,0.00,--,--,0.00,awk and wget,2013-09-02 03:05:00,
2013-09-01 23:10:00,65.1,64.8,27.22,NE,35,1.9,2.9,98,0.00,--,--,0.00,awk and wget,2013-09-02 03:10:00,
2013-09-01 23:15:00,65.1,64.8,27.22,NNE,33,1.4,2.9,98,0.00,--,--,0.00,awk and wget,2013-09-02 03:15:00,
2013-09-01 23:20:00,65.2,64.9,27.22,NNW,332,1.8,2.9,98,0.00,--,--,0.00,awk and wget,2013-09-02 03:20:00,
2013-09-01 23:25:00,65.0,64.7,27.21,NE,40,0.7,2.9,98,0.00,--,--,0.00,awk and wget,2013-09-02 03:25:00,
2013-09-01 23:30:00,64.6,64.2,27.21,NE,40,0.1,2.9,98,0.00,--,--,0.00,awk and wget,2013-09-02 03:30:00,
2013-09-01 23:35:00,64.8,64.5,27.21,NE,39,1.3,2.9,99,0.00,--,--,0.00,awk and wget,2013-09-02 03:35:00,
2013-09-01 23:40:00,64.6,64.3,27.21,NNW,346,0.8,2.9,99,0.00,--,--,0.00,awk and wget,2013-09-02 03:40:00,
2013-09-01 23:45:00,64.5,64.2,27.21,East,82,2.7,2.9,99,0.00,--,--,0.00,awk and wget,2013-09-02 03:45:00,
2013-09-01 23:50:00,64.8,64.6,27.21,ENE,77,1.8,2.9,99,0.00,--,--,0.00,awk and wget,2013-09-02 03:50:00,
2013-09-01 23:55:00,64.6,64.4,27.21,East,80,0.1,2.9,99,0.00,--,--,0.00,awk and wget,2013-09-02 03:55:00,